This is the latest recevied weather packets stored in our database for station/object VA7SCH-13. If no packets are shown the sender has not sent any weather packets the latest 10 day(s).
| Time | Temp. | Humidity | Pressure | Rain* | Wind** | Luminosity | Snow |
|---|---|---|---|---|---|---|---|
| 1778141741 | 14.44° C | 56% | 1017.8 hPa | 0 mm | - | - | - |
| 1778139321 | 15° C | 55% | 1017.7 hPa | 0 mm | - | - | - |
| 1778136321 | 15° C | 54% | 1016.3 hPa | 0 mm | - | - | - |
| 1778133921 | 15.56° C | 52% | 1016.3 hPa | 0 mm | - | - | - |
| 1778130321 | 16.67° C | 49% | 1015.1 hPa | 0 mm | - | - | - |
| 1778128519 | 17.78° C | 47% | 1014.9 hPa | 0 mm | - | - | - |
| 1778122537 | 19.44° C | 41% | 1013.3 hPa | 0 mm | - | - | - |
| 1778120137 | 21.11° C | 36% | 1012.2 hPa | 0 mm | - | - | - |
| 1778119557 | 21.67° C | 37% | 1012.1 hPa | 0 mm | - | - | - |
| 1778118357 | 22.22° C | 37% | 1012.1 hPa | 0 mm | - | - | - |
| 1778117137 | 22.78° C | 36% | 1012.1 hPa | 0 mm | - | - | - |
| 1778116537 | 22.78° C | 35% | 1012.1 hPa | 0 mm | - | - | - |
| 1778115337 | 23.89° C | 34% | 1012.4 hPa | 0 mm | - | - | - |
| 1778114757 | 23.89° C | 33% | 1011.4 hPa | 0 mm | - | - | - |
| 1778111736 | 25.56° C | 31% | 1012.7 hPa | 0 mm | - | - | - |
| 1778111158 | 26.11° C | 30% | 1012.8 hPa | 0 mm | - | - | - |
| 1778107535 | 28.33° C | 27% | 1012.1 hPa | 0 mm | - | - | - |
| 1778104535 | 28.89° C | 27% | 1013.3 hPa | 0 mm | - | - | - |
| 1778099134 | 27.78° C | 31% | 1013.5 hPa | 0 mm | - | - | - |
| 1778094933 | 25° C | 38% | 1014.8 hPa | 0 mm | - | - | - |
| 1778092533 | 23.33° C | 38% | 1014.8 hPa | 0 mm | - | - | - |
| 1778090732 | 22.78° C | 39% | 1015.9 hPa | 0 mm | - | - | - |
| 1778086532 | 21.67° C | 42% | 1015.7 hPa | 0 mm | - | - | - |
| 1778085332 | 21.11° C | 44% | 1015.6 hPa | 0 mm | - | - | - |
| 1778084732 | 20.56° C | 44% | 1016.7 hPa | 0 mm | - | - | - |
* Rain latest hour (hover to see other rain measurements)
** Current wind speed in m/s (hover to see current wind gust speed)